sensor_id;sensor_type;location;lat;lon;timestamp;P1;durP1;ratioP1;P2;durP2;ratioP2
15990;SDS011;8100;50.994;4.538;2023-12-07T00:00:46;19.05;;;8.13;;
15990;SDS011;8100;50.994;4.538;2023-12-07T00:03:33;17.40;;;7.60;;
15990;SDS011;8100;50.994;4.538;2023-12-07T00:06:20;20.00;;;8.02;;
15990;SDS011;8100;50.994;4.538;2023-12-07T00:09:07;18.58;;;7.50;;
15990;SDS011;8100;50.994;4.538;2023-12-07T00:11:55;16.20;;;7.15;;
15990;SDS011;8100;50.994;4.538;2023-12-07T00:14:42;18.98;;;7.97;;
15990;SDS011;8100;50.994;4.538;2023-12-07T00:17:29;17.05;;;7.82;;
15990;SDS011;8100;50.994;4.538;2023-12-07T00:20:16;22.48;;;8.60;;
15990;SDS011;8100;50.994;4.538;2023-12-07T00:23:03;17.48;;;7.32;;
15990;SDS011;8100;50.994;4.538;2023-12-07T00:25:50;20.98;;;8.07;;
15990;SDS011;8100;50.994;4.538;2023-12-07T00:28:39;16.00;;;6.55;;
15990;SDS011;8100;50.994;4.538;2023-12-07T00:31:26;18.95;;;7.53;;
15990;SDS011;8100;50.994;4.538;2023-12-07T00:34:12;21.15;;;7.90;;
15990;SDS011;8100;50.994;4.538;2023-12-07T00:36:59;19.45;;;7.43;;
15990;SDS011;8100;50.994;4.538;2023-12-07T00:39:47;20.80;;;7.55;;
15990;SDS011;8100;50.994;4.538;2023-12-07T00:42:34;18.17;;;7.10;;
15990;SDS011;8100;50.994;4.538;2023-12-07T00:45:22;20.40;;;7.70;;
15990;SDS011;8100;50.994;4.538;2023-12-07T00:48:09;22.63;;;8.10;;
15990;SDS011;8100;50.994;4.538;2023-12-07T00:50:56;17.67;;;7.28;;
15990;SDS011;8100;50.994;4.538;2023-12-07T00:53:43;16.00;;;6.82;;
15990;SDS011;8100;50.994;4.538;2023-12-07T00:56:30;18.05;;;6.75;;
15990;SDS011;8100;50.994;4.538;2023-12-07T00:59:17;18.25;;;7.47;;
15990;SDS011;8100;50.994;4.538;2023-12-07T01:02:05;16.48;;;6.50;;
15990;SDS011;8100;50.994;4.538;2023-12-07T01:04:52;19.55;;;7.47;;
15990;SDS011;8100;50.994;4.538;2023-12-07T01:07:40;18.75;;;6.93;;
15990;SDS011;8100;50.994;4.538;2023-12-07T01:10:27;18.20;;;7.45;;
15990;SDS011;8100;50.994;4.538;2023-12-07T01:13:13;17.33;;;7.38;;
15990;SDS011;8100;50.994;4.538;2023-12-07T01:16:00;15.02;;;6.68;;
15990;SDS011;8100;50.994;4.538;2023-12-07T01:18:49;18.38;;;7.55;;
15990;SDS011;8100;50.994;4.538;2023-12-07T01:21:36;18.95;;;7.38;;
15990;SDS011;8100;50.994;4.538;2023-12-07T01:24:22;19.25;;;6.95;;
15990;SDS011;8100;50.994;4.538;2023-12-07T01:27:09;16.58;;;6.88;;
15990;SDS011;8100;50.994;4.538;2023-12-07T01:29:57;15.80;;;6.57;;
15990;SDS011;8100;50.994;4.538;2023-12-07T01:32:44;18.77;;;6.60;;
15990;SDS011;8100;50.994;4.538;2023-12-07T01:35:32;17.40;;;6.05;;
15990;SDS011;8100;50.994;4.538;2023-12-07T01:38:19;14.35;;;6.43;;
15990;SDS011;8100;50.994;4.538;2023-12-07T01:41:06;19.25;;;7.07;;
15990;SDS011;8100;50.994;4.538;2023-12-07T01:43:53;14.88;;;6.30;;
15990;SDS011;8100;50.994;4.538;2023-12-07T01:46:40;18.75;;;7.00;;
15990;SDS011;8100;50.994;4.538;2023-12-07T01:49:27;18.40;;;7.00;;
15990;SDS011;8100;50.994;4.538;2023-12-07T01:52:16;18.08;;;6.88;;
15990;SDS011;8100;50.994;4.538;2023-12-07T01:55:05;17.45;;;6.85;;
15990;SDS011;8100;50.994;4.538;2023-12-07T01:57:55;17.40;;;6.68;;
15990;SDS011;8100;50.994;4.538;2023-12-07T02:00:42;15.23;;;6.57;;
15990;SDS011;8100;50.994;4.538;2023-12-07T02:03:29;17.15;;;6.20;;
15990;SDS011;8100;50.994;4.538;2023-12-07T02:06:17;16.08;;;6.70;;
15990;SDS011;8100;50.994;4.538;2023-12-07T02:09:07;13.75;;;6.25;;
15990;SDS011;8100;50.994;4.538;2023-12-07T02:11:54;14.77;;;5.97;;
15990;SDS011;8100;50.994;4.538;2023-12-07T02:14:41;17.23;;;6.28;;
15990;SDS011;8100;50.994;4.538;2023-12-07T02:17:28;13.27;;;5.72;;
15990;SDS011;8100;50.994;4.538;2023-12-07T02:20:21;15.43;;;6.07;;
15990;SDS011;8100;50.994;4.538;2023-12-07T02:23:15;15.82;;;6.63;;
15990;SDS011;8100;50.994;4.538;2023-12-07T02:26:05;13.25;;;5.70;;
15990;SDS011;8100;50.994;4.538;2023-12-07T02:28:56;17.60;;;6.47;;
15990;SDS011;8100;50.994;4.538;2023-12-07T02:31:43;17.08;;;6.70;;
15990;SDS011;8100;50.994;4.538;2023-12-07T02:34:30;16.83;;;6.28;;
15990;SDS011;8100;50.994;4.538;2023-12-07T02:37:17;15.82;;;6.40;;
15990;SDS011;8100;50.994;4.538;2023-12-07T02:40:06;13.57;;;5.97;;
15990;SDS011;8100;50.994;4.538;2023-12-07T02:42:56;17.02;;;6.47;;
15990;SDS011;8100;50.994;4.538;2023-12-07T02:45:45;13.80;;;5.60;;
15990;SDS011;8100;50.994;4.538;2023-12-07T02:48:32;14.23;;;6.28;;
15990;SDS011;8100;50.994;4.538;2023-12-07T02:51:19;14.02;;;6.13;;
15990;SDS011;8100;50.994;4.538;2023-12-07T02:54:06;11.57;;;5.55;;
15990;SDS011;8100;50.994;4.538;2023-12-07T02:56:53;12.48;;;5.72;;
15990;SDS011;8100;50.994;4.538;2023-12-07T02:59:40;17.15;;;6.60;;
15990;SDS011;8100;50.994;4.538;2023-12-07T03:02:28;12.23;;;5.35;;
15990;SDS011;8100;50.994;4.538;2023-12-07T03:05:15;13.27;;;5.78;;
15990;SDS011;8100;50.994;4.538;2023-12-07T03:08:05;13.65;;;6.47;;
15990;SDS011;8100;50.994;4.538;2023-12-07T03:10:52;13.43;;;6.68;;
15990;SDS011;8100;50.994;4.538;2023-12-07T03:13:38;12.32;;;5.97;;
15990;SDS011;8100;50.994;4.538;2023-12-07T03:16:25;14.68;;;7.00;;
15990;SDS011;8100;50.994;4.538;2023-12-07T03:19:14;13.50;;;6.90;;
15990;SDS011;8100;50.994;4.538;2023-12-07T03:22:00;13.25;;;6.18;;
15990;SDS011;8100;50.994;4.538;2023-12-07T03:24:50;13.10;;;6.32;;
15990;SDS011;8100;50.994;4.538;2023-12-07T03:27:37;13.50;;;6.47;;
15990;SDS011;8100;50.994;4.538;2023-12-07T03:30:24;12.63;;;6.35;;
15990;SDS011;8100;50.994;4.538;2023-12-07T03:33:11;12.55;;;5.78;;
15990;SDS011;8100;50.994;4.538;2023-12-07T03:35:59;11.88;;;5.95;;
15990;SDS011;8100;50.994;4.538;2023-12-07T03:38:47;14.32;;;6.50;;
15990;SDS011;8100;50.994;4.538;2023-12-07T03:41:34;12.27;;;5.70;;
15990;SDS011;8100;50.994;4.538;2023-12-07T03:44:21;13.45;;;5.97;;
15990;SDS011;8100;50.994;4.538;2023-12-07T03:47:08;11.35;;;5.63;;
15990;SDS011;8100;50.994;4.538;2023-12-07T03:49:55;13.63;;;5.95;;
15990;SDS011;8100;50.994;4.538;2023-12-07T03:52:44;12.20;;;6.07;;
15990;SDS011;8100;50.994;4.538;2023-12-07T03:55:30;12.35;;;5.53;;
15990;SDS011;8100;50.994;4.538;2023-12-07T03:58:17;12.02;;;5.63;;
15990;SDS011;8100;50.994;4.538;2023-12-07T04:01:04;13.95;;;6.43;;
15990;SDS011;8100;50.994;4.538;2023-12-07T04:03:51;12.68;;;6.03;;
15990;SDS011;8100;50.994;4.538;2023-12-07T04:06:39;10.65;;;5.25;;
15990;SDS011;8100;50.994;4.538;2023-12-07T04:09:28;11.48;;;5.82;;
15990;SDS011;8100;50.994;4.538;2023-12-07T04:12:15;12.20;;;5.75;;
15990;SDS011;8100;50.994;4.538;2023-12-07T04:15:03;13.23;;;6.07;;
15990;SDS011;8100;50.994;4.538;2023-12-07T04:17:50;13.88;;;5.60;;
15990;SDS011;8100;50.994;4.538;2023-12-07T04:20:38;13.48;;;5.47;;
15990;SDS011;8100;50.994;4.538;2023-12-07T04:23:25;12.32;;;5.22;;
15990;SDS011;8100;50.994;4.538;2023-12-07T04:26:13;11.93;;;5.35;;
15990;SDS011;8100;50.994;4.538;2023-12-07T04:29:00;14.40;;;5.97;;
15990;SDS011;8100;50.994;4.538;2023-12-07T04:31:47;12.05;;;5.30;;
15990;SDS011;8100;50.994;4.538;2023-12-07T04:34:34;11.80;;;5.30;;
15990;SDS011;8100;50.994;4.538;2023-12-07T04:37:22;10.55;;;5.03;;
15990;SDS011;8100;50.994;4.538;2023-12-07T04:40:10;13.80;;;5.80;;
15990;SDS011;8100;50.994;4.538;2023-12-07T04:42:59;10.15;;;4.90;;
15990;SDS011;8100;50.994;4.538;2023-12-07T04:45:46;8.68;;;4.85;;
15990;SDS011;8100;50.994;4.538;2023-12-07T04:48:33;9.23;;;4.40;;
15990;SDS011;8100;50.994;4.538;2023-12-07T04:51:19;10.18;;;4.70;;
15990;SDS011;8100;50.994;4.538;2023-12-07T04:54:06;9.40;;;4.68;;
15990;SDS011;8100;50.994;4.538;2023-12-07T04:56:53;7.93;;;4.80;;
15990;SDS011;8100;50.994;4.538;2023-12-07T04:59:42;8.13;;;4.43;;
15990;SDS011;8100;50.994;4.538;2023-12-07T05:02:32;9.60;;;4.72;;
15990;SDS011;8100;50.994;4.538;2023-12-07T05:05:19;9.90;;;4.68;;
15990;SDS011;8100;50.994;4.538;2023-12-07T05:08:06;10.20;;;4.43;;
15990;SDS011;8100;50.994;4.538;2023-12-07T05:10:53;7.65;;;4.47;;
15990;SDS011;8100;50.994;4.538;2023-12-07T05:13:40;10.63;;;4.85;;
15990;SDS011;8100;50.994;4.538;2023-12-07T05:16:29;10.65;;;5.00;;
15990;SDS011;8100;50.994;4.538;2023-12-07T05:19:16;8.07;;;4.72;;
15990;SDS011;8100;50.994;4.538;2023-12-07T05:22:03;10.63;;;4.88;;
15990;SDS011;8100;50.994;4.538;2023-12-07T05:24:50;9.43;;;4.65;;
15990;SDS011;8100;50.994;4.538;2023-12-07T05:27:37;8.50;;;4.68;;
15990;SDS011;8100;50.994;4.538;2023-12-07T05:30:24;7.88;;;4.40;;
15990;SDS011;8100;50.994;4.538;2023-12-07T05:33:12;9.43;;;4.70;;
15990;SDS011;8100;50.994;4.538;2023-12-07T05:35:59;11.20;;;4.60;;
15990;SDS011;8100;50.994;4.538;2023-12-07T05:38:48;8.10;;;4.50;;
15990;SDS011;8100;50.994;4.538;2023-12-07T05:41:35;7.90;;;4.32;;
15990;SDS011;8100;50.994;4.538;2023-12-07T05:44:22;8.10;;;4.47;;
15990;SDS011;8100;50.994;4.538;2023-12-07T05:47:09;7.38;;;3.83;;
15990;SDS011;8100;50.994;4.538;2023-12-07T05:49:58;7.63;;;4.03;;
15990;SDS011;8100;50.994;4.538;2023-12-07T05:52:45;9.90;;;4.63;;
15990;SDS011;8100;50.994;4.538;2023-12-07T05:55:32;8.90;;;4.18;;
15990;SDS011;8100;50.994;4.538;2023-12-07T05:58:19;9.43;;;4.65;;
15990;SDS011;8100;50.994;4.538;2023-12-07T06:01:06;8.45;;;4.30;;
15990;SDS011;8100;50.994;4.538;2023-12-07T06:03:53;9.77;;;5.07;;
15990;SDS011;8100;50.994;4.538;2023-12-07T06:06:41;9.55;;;5.03;;
15990;SDS011;8100;50.994;4.538;2023-12-07T06:09:28;9.13;;;4.63;;
15990;SDS011;8100;50.994;4.538;2023-12-07T06:12:15;8.57;;;4.70;;
15990;SDS011;8100;50.994;4.538;2023-12-07T06:15:02;9.23;;;4.43;;
15990;SDS011;8100;50.994;4.538;2023-12-07T06:17:52;8.93;;;4.95;;
15990;SDS011;8100;50.994;4.538;2023-12-07T06:20:39;12.27;;;4.68;;
15990;SDS011;8100;50.994;4.538;2023-12-07T06:23:28;9.85;;;4.80;;
15990;SDS011;8100;50.994;4.538;2023-12-07T06:26:16;7.55;;;4.55;;
15990;SDS011;8100;50.994;4.538;2023-12-07T06:29:03;7.63;;;4.50;;
15990;SDS011;8100;50.994;4.538;2023-12-07T06:31:52;9.00;;;4.90;;
15990;SDS011;8100;50.994;4.538;2023-12-07T06:34:39;7.43;;;4.57;;
15990;SDS011;8100;50.994;4.538;2023-12-07T06:37:27;7.55;;;4.57;;
15990;SDS011;8100;50.994;4.538;2023-12-07T06:40:16;10.18;;;4.28;;
15990;SDS011;8100;50.994;4.538;2023-12-07T06:43:02;8.05;;;4.70;;
15990;SDS011;8100;50.994;4.538;2023-12-07T06:45:50;10.23;;;4.85;;
15990;SDS011;8100;50.994;4.538;2023-12-07T06:48:37;8.07;;;4.40;;
15990;SDS011;8100;50.994;4.538;2023-12-07T06:51:24;6.78;;;4.35;;
15990;SDS011;8100;50.994;4.538;2023-12-07T06:54:11;8.90;;;4.38;;
15990;SDS011;8100;50.994;4.538;2023-12-07T06:57:00;7.45;;;4.43;;
15990;SDS011;8100;50.994;4.538;2023-12-07T06:59:47;8.90;;;4.47;;
15990;SDS011;8100;50.994;4.538;2023-12-07T07:02:34;6.88;;;4.25;;
15990;SDS011;8100;50.994;4.538;2023-12-07T07:05:21;8.23;;;4.40;;
15990;SDS011;8100;50.994;4.538;2023-12-07T07:08:08;7.38;;;4.10;;
15990;SDS011;8100;50.994;4.538;2023-12-07T07:10:55;11.02;;;4.85;;
15990;SDS011;8100;50.994;4.538;2023-12-07T07:13:43;7.68;;;4.18;;
15990;SDS011;8100;50.994;4.538;2023-12-07T07:16:30;6.65;;;3.85;;
15990;SDS011;8100;50.994;4.538;2023-12-07T07:19:17;7.80;;;4.30;;
15990;SDS011;8100;50.994;4.538;2023-12-07T07:22:04;6.32;;;3.92;;
15990;SDS011;8100;50.994;4.538;2023-12-07T07:24:51;8.27;;;4.38;;
15990;SDS011;8100;50.994;4.538;2023-12-07T07:27:38;9.00;;;4.50;;
15990;SDS011;8100;50.994;4.538;2023-12-07T07:30:26;6.50;;;4.30;;
15990;SDS011;8100;50.994;4.538;2023-12-07T07:33:13;7.28;;;4.20;;
15990;SDS011;8100;50.994;4.538;2023-12-07T07:36:00;7.75;;;3.92;;
15990;SDS011;8100;50.994;4.538;2023-12-07T07:38:47;7.68;;;4.13;;
15990;SDS011;8100;50.994;4.538;2023-12-07T07:41:34;7.53;;;4.00;;
15990;SDS011;8100;50.994;4.538;2023-12-07T07:44:22;6.82;;;4.03;;
15990;SDS011;8100;50.994;4.538;2023-12-07T07:47:10;5.72;;;3.67;;
15990;SDS011;8100;50.994;4.538;2023-12-07T07:49:57;7.05;;;3.95;;
15990;SDS011;8100;50.994;4.538;2023-12-07T07:52:44;5.40;;;3.40;;
15990;SDS011;8100;50.994;4.538;2023-12-07T07:55:31;7.82;;;4.05;;
15990;SDS011;8100;50.994;4.538;2023-12-07T07:58:18;6.55;;;3.97;;
15990;SDS011;8100;50.994;4.538;2023-12-07T08:01:06;5.68;;;3.65;;
15990;SDS011;8100;50.994;4.538;2023-12-07T08:03:54;12.45;;;4.53;;
15990;SDS011;8100;50.994;4.538;2023-12-07T08:06:41;9.38;;;3.83;;
15990;SDS011;8100;50.994;4.538;2023-12-07T08:09:28;7.18;;;4.18;;
15990;SDS011;8100;50.994;4.538;2023-12-07T08:12:15;6.78;;;3.80;;
15990;SDS011;8100;50.994;4.538;2023-12-07T08:15:02;7.07;;;3.63;;
15990;SDS011;8100;50.994;4.538;2023-12-07T08:17:50;8.07;;;4.00;;
15990;SDS011;8100;50.994;4.538;2023-12-07T08:20:39;8.70;;;4.25;;
15990;SDS011;8100;50.994;4.538;2023-12-07T08:23:26;7.22;;;3.85;;
15990;SDS011;8100;50.994;4.538;2023-12-07T08:26:13;8.55;;;4.53;;
15990;SDS011;8100;50.994;4.538;2023-12-07T08:29:01;8.38;;;4.00;;
15990;SDS011;8100;50.994;4.538;2023-12-07T08:31:48;9.23;;;3.55;;
15990;SDS011;8100;50.994;4.538;2023-12-07T08:34:35;7.45;;;4.00;;
15990;SDS011;8100;50.994;4.538;2023-12-07T08:37:24;11.43;;;4.38;;
15990;SDS011;8100;50.994;4.538;2023-12-07T08:40:10;8.52;;;4.18;;
15990;SDS011;8100;50.994;4.538;2023-12-07T08:43:00;7.18;;;4.05;;
15990;SDS011;8100;50.994;4.538;2023-12-07T08:45:47;7.22;;;4.20;;
15990;SDS011;8100;50.994;4.538;2023-12-07T08:48:35;7.05;;;3.80;;
15990;SDS011;8100;50.994;4.538;2023-12-07T08:51:22;7.90;;;4.03;;
15990;SDS011;8100;50.994;4.538;2023-12-07T08:54:11;7.47;;;4.00;;
15990;SDS011;8100;50.994;4.538;2023-12-07T08:56:58;7.88;;;4.03;;
15990;SDS011;8100;50.994;4.538;2023-12-07T08:59:45;7.93;;;4.13;;
15990;SDS011;8100;50.994;4.538;2023-12-07T09:02:32;8.52;;;3.97;;
15990;SDS011;8100;50.994;4.538;2023-12-07T09:05:19;10.20;;;4.25;;
15990;SDS011;8100;50.994;4.538;2023-12-07T09:08:06;6.70;;;4.20;;
15990;SDS011;8100;50.994;4.538;2023-12-07T09:10:54;7.93;;;4.40;;
15990;SDS011;8100;50.994;4.538;2023-12-07T09:13:41;8.80;;;4.40;;
15990;SDS011;8100;50.994;4.538;2023-12-07T09:16:28;9.52;;;4.45;;
15990;SDS011;8100;50.994;4.538;2023-12-07T09:19:15;6.30;;;3.88;;
15990;SDS011;8100;50.994;4.538;2023-12-07T09:22:02;6.35;;;3.88;;
15990;SDS011;8100;50.994;4.538;2023-12-07T09:24:49;6.25;;;3.70;;
15990;SDS011;8100;50.994;4.538;2023-12-07T09:27:38;7.30;;;3.97;;
15990;SDS011;8100;50.994;4.538;2023-12-07T09:30:25;8.30;;;4.47;;
15990;SDS011;8100;50.994;4.538;2023-12-07T09:33:12;8.70;;;4.20;;
15990;SDS011;8100;50.994;4.538;2023-12-07T09:35:59;7.03;;;4.00;;
15990;SDS011;8100;50.994;4.538;2023-12-07T09:38:48;6.55;;;4.13;;
15990;SDS011;8100;50.994;4.538;2023-12-07T09:41:35;7.95;;;3.85;;
15990;SDS011;8100;50.994;4.538;2023-12-07T09:44:25;7.88;;;4.30;;
15990;SDS011;8100;50.994;4.538;2023-12-07T09:47:12;8.55;;;4.18;;
15990;SDS011;8100;50.994;4.538;2023-12-07T09:50:00;6.05;;;3.80;;
15990;SDS011;8100;50.994;4.538;2023-12-07T09:52:48;9.88;;;5.00;;
15990;SDS011;8100;50.994;4.538;2023-12-07T09:55:36;7.28;;;4.18;;
15990;SDS011;8100;50.994;4.538;2023-12-07T09:58:23;6.85;;;3.90;;
15990;SDS011;8100;50.994;4.538;2023-12-07T10:01:11;6.78;;;4.05;;
15990;SDS011;8100;50.994;4.538;2023-12-07T10:07:02;7.40;;;3.75;;
15990;SDS011;8100;50.994;4.538;2023-12-07T10:09:49;7.88;;;4.25;;
15990;SDS011;8100;50.994;4.538;2023-12-07T10:12:36;7.43;;;4.03;;
15990;SDS011;8100;50.994;4.538;2023-12-07T10:15:32;7.05;;;4.30;;
15990;SDS011;8100;50.994;4.538;2023-12-07T10:18:24;7.28;;;3.85;;
15990;SDS011;8100;50.994;4.538;2023-12-07T10:21:11;8.13;;;4.28;;
15990;SDS011;8100;50.994;4.538;2023-12-07T10:23:58;8.80;;;4.40;;
15990;SDS011;8100;50.994;4.538;2023-12-07T10:26:45;7.38;;;4.05;;
15990;SDS011;8100;50.994;4.538;2023-12-07T10:29:35;6.30;;;4.13;;
15990;SDS011;8100;50.994;4.538;2023-12-07T10:32:22;5.97;;;3.42;;
15990;SDS011;8100;50.994;4.538;2023-12-07T10:35:10;8.70;;;4.18;;
15990;SDS011;8100;50.994;4.538;2023-12-07T10:37:57;8.25;;;3.72;;
15990;SDS011;8100;50.994;4.538;2023-12-07T10:40:45;8.63;;;4.05;;
15990;SDS011;8100;50.994;4.538;2023-12-07T10:43:33;7.47;;;3.63;;
15990;SDS011;8100;50.994;4.538;2023-12-07T10:46:23;6.07;;;3.53;;
15990;SDS011;8100;50.994;4.538;2023-12-07T10:49:14;7.78;;;3.80;;
15990;SDS011;8100;50.994;4.538;2023-12-07T10:52:07;6.57;;;4.10;;
15990;SDS011;8100;50.994;4.538;2023-12-07T10:55:02;7.13;;;4.10;;
15990;SDS011;8100;50.994;4.538;2023-12-07T10:57:52;6.88;;;3.53;;
15990;SDS011;8100;50.994;4.538;2023-12-07T11:00:40;5.13;;;3.30;;
15990;SDS011;8100;50.994;4.538;2023-12-07T11:03:31;7.47;;;3.15;;
15990;SDS011;8100;50.994;4.538;2023-12-07T11:06:19;8.40;;;3.47;;
15990;SDS011;8100;50.994;4.538;2023-12-07T11:09:08;7.85;;;3.28;;
15990;SDS011;8100;50.994;4.538;2023-12-07T11:11:59;6.00;;;3.28;;
15990;SDS011;8100;50.994;4.538;2023-12-07T11:14:55;6.32;;;3.05;;
15990;SDS011;8100;50.994;4.538;2023-12-07T11:17:49;4.53;;;2.80;;
15990;SDS011;8100;50.994;4.538;2023-12-07T11:20:41;6.72;;;3.10;;
15990;SDS011;8100;50.994;4.538;2023-12-07T11:23:31;5.35;;;2.97;;
15990;SDS011;8100;50.994;4.538;2023-12-07T11:26:23;6.55;;;2.80;;
15990;SDS011;8100;50.994;4.538;2023-12-07T11:29:10;5.90;;;2.97;;
15990;SDS011;8100;50.994;4.538;2023-12-07T11:31:58;5.38;;;2.65;;
15990;SDS011;8100;50.994;4.538;2023-12-07T11:34:48;5.70;;;2.72;;
15990;SDS011;8100;50.994;4.538;2023-12-07T11:40:48;4.85;;;2.75;;
15990;SDS011;8100;50.994;4.538;2023-12-07T11:43:44;4.63;;;2.85;;
15990;SDS011;8100;50.994;4.538;2023-12-07T11:46:31;5.65;;;2.67;;
15990;SDS011;8100;50.994;4.538;2023-12-07T11:49:21;5.22;;;3.10;;
15990;SDS011;8100;50.994;4.538;2023-12-07T11:52:14;6.88;;;3.28;;
15990;SDS011;8100;50.994;4.538;2023-12-07T11:55:02;8.02;;;3.80;;
15990;SDS011;8100;50.994;4.538;2023-12-07T11:57:49;5.25;;;3.15;;
15990;SDS011;8100;50.994;4.538;2023-12-07T12:00:38;7.00;;;3.45;;
15990;SDS011;8100;50.994;4.538;2023-12-07T12:03:26;8.60;;;3.47;;
15990;SDS011;8100;50.994;4.538;2023-12-07T12:06:14;6.55;;;3.17;;
15990;SDS011;8100;50.994;4.538;2023-12-07T12:09:01;6.35;;;3.10;;
15990;SDS011;8100;50.994;4.538;2023-12-07T12:11:48;6.60;;;2.75;;
15990;SDS011;8100;50.994;4.538;2023-12-07T12:14:35;6.00;;;3.13;;
15990;SDS011;8100;50.994;4.538;2023-12-07T12:17:23;4.93;;;2.80;;
15990;SDS011;8100;50.994;4.538;2023-12-07T12:20:10;7.10;;;2.90;;
15990;SDS011;8100;50.994;4.538;2023-12-07T12:23:02;5.93;;;3.00;;
15990;SDS011;8100;50.994;4.538;2023-12-07T12:25:49;6.68;;;2.90;;
15990;SDS011;8100;50.994;4.538;2023-12-07T12:28:37;5.13;;;2.88;;
15990;SDS011;8100;50.994;4.538;2023-12-07T12:31:27;5.28;;;2.83;;
15990;SDS011;8100;50.994;4.538;2023-12-07T12:34:16;6.43;;;2.80;;
15990;SDS011;8100;50.994;4.538;2023-12-07T12:37:03;4.25;;;2.50;;
15990;SDS011;8100;50.994;4.538;2023-12-07T12:39:52;5.28;;;2.70;;
15990;SDS011;8100;50.994;4.538;2023-12-07T12:42:39;6.72;;;3.03;;
15990;SDS011;8100;50.994;4.538;2023-12-07T12:45:26;4.03;;;2.42;;
15990;SDS011;8100;50.994;4.538;2023-12-07T12:48:14;5.20;;;2.58;;
15990;SDS011;8100;50.994;4.538;2023-12-07T12:51:08;7.22;;;2.97;;
15990;SDS011;8100;50.994;4.538;2023-12-07T12:53:59;5.10;;;2.90;;
15990;SDS011;8100;50.994;4.538;2023-12-07T12:56:46;5.60;;;2.85;;
15990;SDS011;8100;50.994;4.538;2023-12-07T12:59:33;5.90;;;2.70;;
15990;SDS011;8100;50.994;4.538;2023-12-07T13:02:20;5.45;;;3.28;;
15990;SDS011;8100;50.994;4.538;2023-12-07T13:05:07;4.28;;;2.65;;
15990;SDS011;8100;50.994;4.538;2023-12-07T13:07:56;8.18;;;2.97;;
15990;SDS011;8100;50.994;4.538;2023-12-07T13:10:44;5.53;;;2.65;;
15990;SDS011;8100;50.994;4.538;2023-12-07T13:13:30;6.20;;;3.00;;
15990;SDS011;8100;50.994;4.538;2023-12-07T13:16:17;5.05;;;2.95;;
15990;SDS011;8100;50.994;4.538;2023-12-07T13:19:06;6.22;;;2.78;;
15990;SDS011;8100;50.994;4.538;2023-12-07T13:21:53;5.82;;;2.88;;
15990;SDS011;8100;50.994;4.538;2023-12-07T13:24:42;5.55;;;2.80;;
15990;SDS011;8100;50.994;4.538;2023-12-07T13:27:29;6.00;;;2.70;;
15990;SDS011;8100;50.994;4.538;2023-12-07T13:30:16;4.70;;;2.78;;
15990;SDS011;8100;50.994;4.538;2023-12-07T13:33:03;4.88;;;2.80;;
15990;SDS011;8100;50.994;4.538;2023-12-07T13:35:50;7.22;;;3.28;;
15990;SDS011;8100;50.994;4.538;2023-12-07T13:38:40;7.00;;;3.03;;
15990;SDS011;8100;50.994;4.538;2023-12-07T13:41:28;5.30;;;3.10;;
15990;SDS011;8100;50.994;4.538;2023-12-07T13:44:15;5.53;;;3.22;;
15990;SDS011;8100;50.994;4.538;2023-12-07T13:47:03;6.85;;;2.75;;
15990;SDS011;8100;50.994;4.538;2023-12-07T13:49:51;6.53;;;2.85;;
15990;SDS011;8100;50.994;4.538;2023-12-07T13:52:38;5.88;;;2.92;;
15990;SDS011;8100;50.994;4.538;2023-12-07T13:55:26;7.38;;;3.22;;
15990;SDS011;8100;50.994;4.538;2023-12-07T13:58:14;4.10;;;2.53;;
15990;SDS011;8100;50.994;4.538;2023-12-07T14:01:01;6.65;;;3.15;;
15990;SDS011;8100;50.994;4.538;2023-12-07T14:03:48;5.32;;;2.53;;
15990;SDS011;8100;50.994;4.538;2023-12-07T14:06:35;4.32;;;2.70;;
15990;SDS011;8100;50.994;4.538;2023-12-07T14:09:22;6.05;;;2.92;;
15990;SDS011;8100;50.994;4.538;2023-12-07T14:12:09;4.85;;;2.80;;
15990;SDS011;8100;50.994;4.538;2023-12-07T14:14:59;9.68;;;3.25;;
15990;SDS011;8100;50.994;4.538;2023-12-07T14:17:49;5.93;;;3.35;;
15990;SDS011;8100;50.994;4.538;2023-12-07T14:20:36;6.82;;;2.92;;
15990;SDS011;8100;50.994;4.538;2023-12-07T14:23:23;4.45;;;2.75;;
15990;SDS011;8100;50.994;4.538;2023-12-07T14:26:09;4.88;;;2.83;;
15990;SDS011;8100;50.994;4.538;2023-12-07T14:28:56;5.82;;;3.40;;
15990;SDS011;8100;50.994;4.538;2023-12-07T14:31:45;7.20;;;3.00;;
15990;SDS011;8100;50.994;4.538;2023-12-07T14:34:32;3.88;;;2.80;;
15990;SDS011;8100;50.994;4.538;2023-12-07T14:37:20;4.60;;;3.08;;
15990;SDS011;8100;50.994;4.538;2023-12-07T14:40:07;4.93;;;2.97;;
15990;SDS011;8100;50.994;4.538;2023-12-07T14:42:55;5.75;;;2.90;;
15990;SDS011;8100;50.994;4.538;2023-12-07T14:45:42;7.72;;;2.75;;
15990;SDS011;8100;50.994;4.538;2023-12-07T14:48:32;7.22;;;3.33;;
15990;SDS011;8100;50.994;4.538;2023-12-07T14:51:19;7.00;;;2.88;;
15990;SDS011;8100;50.994;4.538;2023-12-07T14:54:07;6.30;;;2.70;;
15990;SDS011;8100;50.994;4.538;2023-12-07T14:56:54;5.07;;;2.65;;
15990;SDS011;8100;50.994;4.538;2023-12-07T14:59:42;6.72;;;3.35;;
15990;SDS011;8100;50.994;4.538;2023-12-07T15:02:28;5.80;;;3.03;;
15990;SDS011;8100;50.994;4.538;2023-12-07T15:05:17;4.50;;;3.00;;
15990;SDS011;8100;50.994;4.538;2023-12-07T15:08:04;5.03;;;3.28;;
15990;SDS011;8100;50.994;4.538;2023-12-07T15:10:51;5.93;;;2.80;;
15990;SDS011;8100;50.994;4.538;2023-12-07T15:13:40;6.82;;;2.60;;
15990;SDS011;8100;50.994;4.538;2023-12-07T15:16:27;5.18;;;2.50;;
15990;SDS011;8100;50.994;4.538;2023-12-07T15:19:14;5.65;;;3.03;;
15990;SDS011;8100;50.994;4.538;2023-12-07T15:22:03;6.90;;;3.38;;
15990;SDS011;8100;50.994;4.538;2023-12-07T15:24:50;6.47;;;3.08;;
15990;SDS011;8100;50.994;4.538;2023-12-07T15:27:37;4.18;;;2.65;;
15990;SDS011;8100;50.994;4.538;2023-12-07T15:30:24;7.03;;;3.00;;
15990;SDS011;8100;50.994;4.538;2023-12-07T15:33:14;4.90;;;2.95;;
15990;SDS011;8100;50.994;4.538;2023-12-07T15:36:02;5.95;;;2.90;;
15990;SDS011;8100;50.994;4.538;2023-12-07T15:38:54;5.63;;;3.25;;
15990;SDS011;8100;50.994;4.538;2023-12-07T15:41:41;6.88;;;3.30;;
15990;SDS011;8100;50.994;4.538;2023-12-07T15:44:28;5.63;;;2.85;;
15990;SDS011;8100;50.994;4.538;2023-12-07T15:47:15;8.48;;;3.13;;
15990;SDS011;8100;50.994;4.538;2023-12-07T15:50:03;5.78;;;3.03;;
15990;SDS011;8100;50.994;4.538;2023-12-07T15:52:51;4.03;;;2.70;;
15990;SDS011;8100;50.994;4.538;2023-12-07T15:55:40;5.28;;;2.50;;
15990;SDS011;8100;50.994;4.538;2023-12-07T15:58:27;3.03;;;2.30;;
15990;SDS011;8100;50.994;4.538;2023-12-07T16:01:14;3.70;;;2.78;;
15990;SDS011;8100;50.994;4.538;2023-12-07T16:04:01;7.05;;;3.35;;
15990;SDS011;8100;50.994;4.538;2023-12-07T16:06:48;4.25;;;2.25;;
15990;SDS011;8100;50.994;4.538;2023-12-07T16:09:35;5.18;;;2.50;;
15990;SDS011;8100;50.994;4.538;2023-12-07T16:12:24;6.20;;;3.00;;
15990;SDS011;8100;50.994;4.538;2023-12-07T16:15:10;4.65;;;2.40;;
15990;SDS011;8100;50.994;4.538;2023-12-07T16:17:57;5.22;;;2.85;;
15990;SDS011;8100;50.994;4.538;2023-12-07T16:20:44;4.53;;;2.63;;
15990;SDS011;8100;50.994;4.538;2023-12-07T16:23:32;5.13;;;2.38;;
15990;SDS011;8100;50.994;4.538;2023-12-07T16:26:19;4.70;;;2.70;;
15990;SDS011;8100;50.994;4.538;2023-12-07T16:29:07;5.88;;;2.50;;
15990;SDS011;8100;50.994;4.538;2023-12-07T16:31:54;4.57;;;3.13;;
15990;SDS011;8100;50.994;4.538;2023-12-07T16:34:41;5.55;;;2.95;;
15990;SDS011;8100;50.994;4.538;2023-12-07T16:37:31;6.22;;;2.70;;
15990;SDS011;8100;50.994;4.538;2023-12-07T16:40:18;5.97;;;2.63;;
15990;SDS011;8100;50.994;4.538;2023-12-07T16:43:05;6.50;;;3.10;;
15990;SDS011;8100;50.994;4.538;2023-12-07T16:45:53;7.00;;;2.50;;
15990;SDS011;8100;50.994;4.538;2023-12-07T16:48:40;5.72;;;2.95;;
15990;SDS011;8100;50.994;4.538;2023-12-07T16:51:27;3.97;;;2.67;;
15990;SDS011;8100;50.994;4.538;2023-12-07T16:54:14;5.60;;;2.95;;
15990;SDS011;8100;50.994;4.538;2023-12-07T16:57:02;6.00;;;2.80;;
15990;SDS011;8100;50.994;4.538;2023-12-07T16:59:49;6.55;;;2.75;;
15990;SDS011;8100;50.994;4.538;2023-12-07T17:02:37;6.57;;;3.47;;
15990;SDS011;8100;50.994;4.538;2023-12-07T17:05:24;5.35;;;3.10;;
15990;SDS011;8100;50.994;4.538;2023-12-07T17:08:11;7.15;;;2.80;;